sensor_id;sensor_type;location;lat;lon;timestamp;P1;durP1;ratioP1;P2;durP2;ratioP2
18853;SDS011;9556;49.374;19.446;2022-11-15T00:01:19;32.88;;;19.50;;
18853;SDS011;9556;49.374;19.446;2022-11-15T00:03:50;32.35;;;19.40;;
18853;SDS011;9556;49.374;19.446;2022-11-15T00:06:17;30.10;;;19.13;;
18853;SDS011;9556;49.374;19.446;2022-11-15T00:08:44;32.38;;;19.17;;
18853;SDS011;9556;49.374;19.446;2022-11-15T00:11:12;32.50;;;20.25;;
18853;SDS011;9556;49.374;19.446;2022-11-15T00:13:40;33.05;;;19.20;;
18853;SDS011;9556;49.374;19.446;2022-11-15T00:16:08;27.27;;;17.80;;
18853;SDS011;9556;49.374;19.446;2022-11-15T00:18:35;34.17;;;19.92;;
18853;SDS011;9556;49.374;19.446;2022-11-15T00:21:03;30.45;;;19.27;;
18853;SDS011;9556;49.374;19.446;2022-11-15T00:23:31;30.55;;;18.38;;
18853;SDS011;9556;49.374;19.446;2022-11-15T00:25:58;29.85;;;18.83;;
18853;SDS011;9556;49.374;19.446;2022-11-15T00:28:25;29.60;;;18.77;;
18853;SDS011;9556;49.374;19.446;2022-11-15T00:30:54;29.52;;;18.35;;
18853;SDS011;9556;49.374;19.446;2022-11-15T00:33:26;28.67;;;18.10;;
18853;SDS011;9556;49.374;19.446;2022-11-15T00:35:53;30.73;;;18.48;;
18853;SDS011;9556;49.374;19.446;2022-11-15T00:38:20;30.85;;;18.50;;
18853;SDS011;9556;49.374;19.446;2022-11-15T00:40:47;27.92;;;17.90;;
18853;SDS011;9556;49.374;19.446;2022-11-15T00:43:14;24.80;;;16.55;;
18853;SDS011;9556;49.374;19.446;2022-11-15T00:45:41;27.65;;;17.63;;
18853;SDS011;9556;49.374;19.446;2022-11-15T00:48:10;27.48;;;16.90;;
18853;SDS011;9556;49.374;19.446;2022-11-15T00:50:37;26.25;;;16.70;;
18853;SDS011;9556;49.374;19.446;2022-11-15T00:53:05;27.52;;;16.40;;
18853;SDS011;9556;49.374;19.446;2022-11-15T00:55:32;28.33;;;17.13;;
18853;SDS011;9556;49.374;19.446;2022-11-15T00:57:59;23.42;;;16.08;;
18853;SDS011;9556;49.374;19.446;2022-11-15T01:00:26;26.35;;;16.42;;
18853;SDS011;9556;49.374;19.446;2022-11-15T01:02:53;25.15;;;16.52;;
18853;SDS011;9556;49.374;19.446;2022-11-15T01:05:22;24.40;;;15.85;;
18853;SDS011;9556;49.374;19.446;2022-11-15T01:07:50;26.58;;;16.83;;
18853;SDS011;9556;49.374;19.446;2022-11-15T01:10:18;25.30;;;16.17;;
18853;SDS011;9556;49.374;19.446;2022-11-15T01:12:45;22.88;;;15.25;;
18853;SDS011;9556;49.374;19.446;2022-11-15T01:15:12;24.40;;;16.15;;
18853;SDS011;9556;49.374;19.446;2022-11-15T01:17:39;26.13;;;16.50;;
18853;SDS011;9556;49.374;19.446;2022-11-15T01:20:07;27.00;;;16.58;;
18853;SDS011;9556;49.374;19.446;2022-11-15T01:22:36;26.45;;;16.58;;
18853;SDS011;9556;49.374;19.446;2022-11-15T01:25:03;25.15;;;16.30;;
18853;SDS011;9556;49.374;19.446;2022-11-15T01:27:30;26.20;;;16.15;;
18853;SDS011;9556;49.374;19.446;2022-11-15T01:29:57;25.25;;;16.15;;
18853;SDS011;9556;49.374;19.446;2022-11-15T01:32:24;27.92;;;16.63;;
18853;SDS011;9556;49.374;19.446;2022-11-15T01:34:51;26.55;;;16.55;;
18853;SDS011;9556;49.374;19.446;2022-11-15T01:37:18;25.23;;;16.00;;
18853;SDS011;9556;49.374;19.446;2022-11-15T01:39:47;26.30;;;15.68;;
18853;SDS011;9556;49.374;19.446;2022-11-15T01:42:14;23.90;;;15.02;;
18853;SDS011;9556;49.374;19.446;2022-11-15T01:44:42;28.40;;;16.30;;
18853;SDS011;9556;49.374;19.446;2022-11-15T01:47:11;23.92;;;15.15;;
18853;SDS011;9556;49.374;19.446;2022-11-15T01:49:40;26.08;;;15.55;;
18853;SDS011;9556;49.374;19.446;2022-11-15T01:52:10;23.88;;;15.00;;
18853;SDS011;9556;49.374;19.446;2022-11-15T01:54:40;25.15;;;15.60;;
18853;SDS011;9556;49.374;19.446;2022-11-15T01:57:09;23.77;;;15.60;;
18853;SDS011;9556;49.374;19.446;2022-11-15T01:59:36;24.02;;;15.20;;
18853;SDS011;9556;49.374;19.446;2022-11-15T02:02:04;25.80;;;15.48;;
18853;SDS011;9556;49.374;19.446;2022-11-15T02:04:32;22.65;;;14.63;;
18853;SDS011;9556;49.374;19.446;2022-11-15T02:06:59;25.48;;;15.13;;
18853;SDS011;9556;49.374;19.446;2022-11-15T02:09:28;22.02;;;14.48;;
18853;SDS011;9556;49.374;19.446;2022-11-15T02:11:56;22.38;;;14.50;;
18853;SDS011;9556;49.374;19.446;2022-11-15T02:14:24;24.05;;;14.13;;
18853;SDS011;9556;49.374;19.446;2022-11-15T02:16:54;22.13;;;14.30;;
18853;SDS011;9556;49.374;19.446;2022-11-15T02:19:29;20.85;;;13.77;;
18853;SDS011;9556;49.374;19.446;2022-11-15T02:22:07;22.75;;;14.77;;
18853;SDS011;9556;49.374;19.446;2022-11-15T02:24:45;21.95;;;13.73;;
18853;SDS011;9556;49.374;19.446;2022-11-15T02:30:19;20.20;;;13.25;;
18853;SDS011;9556;49.374;19.446;2022-11-15T02:32:48;21.65;;;13.23;;
18853;SDS011;9556;49.374;19.446;2022-11-15T02:35:17;21.15;;;13.57;;
18853;SDS011;9556;49.374;19.446;2022-11-15T02:37:46;21.30;;;13.05;;
18853;SDS011;9556;49.374;19.446;2022-11-15T02:40:18;20.60;;;12.40;;
18853;SDS011;9556;49.374;19.446;2022-11-15T02:42:48;19.83;;;12.70;;
18853;SDS011;9556;49.374;19.446;2022-11-15T02:45:37;19.70;;;12.18;;
18853;SDS011;9556;49.374;19.446;2022-11-15T02:48:06;19.15;;;12.32;;
18853;SDS011;9556;49.374;19.446;2022-11-15T02:50:34;19.95;;;12.10;;
18853;SDS011;9556;49.374;19.446;2022-11-15T02:53:01;17.75;;;11.73;;
18853;SDS011;9556;49.374;19.446;2022-11-15T02:55:29;18.98;;;12.18;;
18853;SDS011;9556;49.374;19.446;2022-11-15T02:58:00;17.58;;;11.95;;
18853;SDS011;9556;49.374;19.446;2022-11-15T03:00:30;17.42;;;11.60;;
18853;SDS011;9556;49.374;19.446;2022-11-15T03:03:16;18.95;;;12.02;;
18853;SDS011;9556;49.374;19.446;2022-11-15T03:05:46;17.52;;;11.15;;
18853;SDS011;9556;49.374;19.446;2022-11-15T03:08:21;16.67;;;11.38;;
18853;SDS011;9556;49.374;19.446;2022-11-15T03:10:51;16.38;;;10.73;;
18853;SDS011;9556;49.374;19.446;2022-11-15T03:13:21;18.40;;;11.00;;
18853;SDS011;9556;49.374;19.446;2022-11-15T03:15:51;17.35;;;11.63;;
18853;SDS011;9556;49.374;19.446;2022-11-15T03:18:24;16.73;;;10.88;;
18853;SDS011;9556;49.374;19.446;2022-11-15T03:20:53;17.95;;;11.00;;
18853;SDS011;9556;49.374;19.446;2022-11-15T03:23:21;16.65;;;10.90;;
18853;SDS011;9556;49.374;19.446;2022-11-15T03:25:49;17.90;;;10.88;;
18853;SDS011;9556;49.374;19.446;2022-11-15T03:28:18;16.42;;;10.65;;
18853;SDS011;9556;49.374;19.446;2022-11-15T03:30:46;16.10;;;10.27;;
18853;SDS011;9556;49.374;19.446;2022-11-15T03:33:14;17.45;;;10.43;;
18853;SDS011;9556;49.374;19.446;2022-11-15T03:35:44;15.85;;;10.38;;
18853;SDS011;9556;49.374;19.446;2022-11-15T03:38:14;15.50;;;10.23;;
18853;SDS011;9556;49.374;19.446;2022-11-15T03:40:42;15.63;;;10.52;;
18853;SDS011;9556;49.374;19.446;2022-11-15T03:43:14;15.82;;;10.05;;
18853;SDS011;9556;49.374;19.446;2022-11-15T03:45:43;14.75;;;9.95;;
18853;SDS011;9556;49.374;19.446;2022-11-15T03:48:13;15.40;;;10.30;;
18853;SDS011;9556;49.374;19.446;2022-11-15T03:50:41;16.88;;;10.32;;
18853;SDS011;9556;49.374;19.446;2022-11-15T03:53:10;13.10;;;9.07;;
18853;SDS011;9556;49.374;19.446;2022-11-15T03:55:38;14.07;;;9.23;;
18853;SDS011;9556;49.374;19.446;2022-11-15T03:58:05;14.13;;;9.43;;
18853;SDS011;9556;49.374;19.446;2022-11-15T04:00:33;14.38;;;9.63;;
18853;SDS011;9556;49.374;19.446;2022-11-15T04:03:00;14.93;;;9.55;;
18853;SDS011;9556;49.374;19.446;2022-11-15T04:05:27;12.98;;;8.82;;
18853;SDS011;9556;49.374;19.446;2022-11-15T04:07:54;13.32;;;8.90;;
18853;SDS011;9556;49.374;19.446;2022-11-15T04:10:23;13.85;;;8.82;;
18853;SDS011;9556;49.374;19.446;2022-11-15T04:12:50;12.90;;;8.45;;
18853;SDS011;9556;49.374;19.446;2022-11-15T04:15:20;12.88;;;8.43;;
18853;SDS011;9556;49.374;19.446;2022-11-15T04:17:48;11.93;;;8.18;;
18853;SDS011;9556;49.374;19.446;2022-11-15T04:20:16;14.15;;;8.63;;
18853;SDS011;9556;49.374;19.446;2022-11-15T04:23:02;13.98;;;8.90;;
18853;SDS011;9556;49.374;19.446;2022-11-15T04:25:48;12.32;;;8.45;;
18853;SDS011;9556;49.374;19.446;2022-11-15T04:28:16;13.82;;;8.70;;
18853;SDS011;9556;49.374;19.446;2022-11-15T04:30:43;11.45;;;7.93;;
18853;SDS011;9556;49.374;19.446;2022-11-15T04:33:10;14.30;;;8.50;;
18853;SDS011;9556;49.374;19.446;2022-11-15T04:35:37;13.40;;;8.38;;
18853;SDS011;9556;49.374;19.446;2022-11-15T04:38:05;12.38;;;8.45;;
18853;SDS011;9556;49.374;19.446;2022-11-15T04:40:32;11.57;;;7.88;;
18853;SDS011;9556;49.374;19.446;2022-11-15T04:43:00;13.43;;;8.27;;
18853;SDS011;9556;49.374;19.446;2022-11-15T04:45:27;14.50;;;8.68;;
18853;SDS011;9556;49.374;19.446;2022-11-15T04:47:55;12.70;;;8.38;;
18853;SDS011;9556;49.374;19.446;2022-11-15T04:50:22;13.40;;;8.63;;
18853;SDS011;9556;49.374;19.446;2022-11-15T04:52:50;11.82;;;8.20;;
18853;SDS011;9556;49.374;19.446;2022-11-15T04:55:17;12.35;;;8.48;;
18853;SDS011;9556;49.374;19.446;2022-11-15T04:57:44;13.07;;;8.73;;
18853;SDS011;9556;49.374;19.446;2022-11-15T05:00:16;13.15;;;8.32;;
18853;SDS011;9556;49.374;19.446;2022-11-15T05:02:43;11.38;;;8.25;;
18853;SDS011;9556;49.374;19.446;2022-11-15T05:05:28;13.90;;;8.80;;
18853;SDS011;9556;49.374;19.446;2022-11-15T05:07:55;14.07;;;7.90;;
18853;SDS011;9556;49.374;19.446;2022-11-15T05:10:22;13.75;;;8.27;;
18853;SDS011;9556;49.374;19.446;2022-11-15T05:12:50;14.25;;;7.60;;
18853;SDS011;9556;49.374;19.446;2022-11-15T05:15:18;15.05;;;8.27;;
18853;SDS011;9556;49.374;19.446;2022-11-15T05:17:45;12.45;;;8.48;;
18853;SDS011;9556;49.374;19.446;2022-11-15T05:20:13;13.75;;;8.65;;
18853;SDS011;9556;49.374;19.446;2022-11-15T05:22:40;12.45;;;8.25;;
18853;SDS011;9556;49.374;19.446;2022-11-15T05:25:07;12.75;;;8.23;;
18853;SDS011;9556;49.374;19.446;2022-11-15T05:27:34;12.18;;;8.27;;
18853;SDS011;9556;49.374;19.446;2022-11-15T05:30:01;12.40;;;8.05;;
18853;SDS011;9556;49.374;19.446;2022-11-15T05:32:30;14.25;;;8.40;;
18853;SDS011;9556;49.374;19.446;2022-11-15T05:34:57;12.98;;;8.25;;
18853;SDS011;9556;49.374;19.446;2022-11-15T05:37:24;16.63;;;8.30;;
18853;SDS011;9556;49.374;19.446;2022-11-15T05:39:51;14.75;;;8.15;;
18853;SDS011;9556;49.374;19.446;2022-11-15T05:42:18;15.48;;;9.10;;
18853;SDS011;9556;49.374;19.446;2022-11-15T05:44:46;18.17;;;8.77;;
18853;SDS011;9556;49.374;19.446;2022-11-15T05:47:15;16.70;;;9.30;;
18853;SDS011;9556;49.374;19.446;2022-11-15T05:49:44;14.55;;;9.07;;
18853;SDS011;9556;49.374;19.446;2022-11-15T05:52:13;16.63;;;9.63;;
18853;SDS011;9556;49.374;19.446;2022-11-15T05:54:41;15.55;;;9.45;;
18853;SDS011;9556;49.374;19.446;2022-11-15T05:57:09;17.90;;;10.40;;
18853;SDS011;9556;49.374;19.446;2022-11-15T05:59:36;17.95;;;9.90;;
18853;SDS011;9556;49.374;19.446;2022-11-15T06:02:05;24.88;;;10.23;;
18853;SDS011;9556;49.374;19.446;2022-11-15T06:04:32;20.42;;;10.00;;
18853;SDS011;9556;49.374;19.446;2022-11-15T06:07:01;19.52;;;10.32;;
18853;SDS011;9556;49.374;19.446;2022-11-15T06:09:28;17.90;;;11.25;;
18853;SDS011;9556;49.374;19.446;2022-11-15T06:11:55;15.77;;;9.88;;
18853;SDS011;9556;49.374;19.446;2022-11-15T06:14:22;19.10;;;10.48;;
18853;SDS011;9556;49.374;19.446;2022-11-15T06:16:49;15.50;;;9.93;;
18853;SDS011;9556;49.374;19.446;2022-11-15T06:19:16;21.48;;;10.23;;
18853;SDS011;9556;49.374;19.446;2022-11-15T06:21:43;18.15;;;10.15;;
18853;SDS011;9556;49.374;19.446;2022-11-15T06:24:12;23.17;;;10.50;;
18853;SDS011;9556;49.374;19.446;2022-11-15T06:26:39;17.70;;;10.50;;
18853;SDS011;9556;49.374;19.446;2022-11-15T06:29:06;20.23;;;10.70;;
18853;SDS011;9556;49.374;19.446;2022-11-15T06:31:33;19.23;;;10.93;;
18853;SDS011;9556;49.374;19.446;2022-11-15T06:34:01;20.73;;;10.77;;
18853;SDS011;9556;49.374;19.446;2022-11-15T06:36:28;24.35;;;11.63;;
18853;SDS011;9556;49.374;19.446;2022-11-15T06:38:56;19.77;;;11.80;;
18853;SDS011;9556;49.374;19.446;2022-11-15T06:41:24;21.55;;;10.88;;
18853;SDS011;9556;49.374;19.446;2022-11-15T06:43:51;22.55;;;11.98;;
18853;SDS011;9556;49.374;19.446;2022-11-15T06:46:18;21.38;;;12.40;;
18853;SDS011;9556;49.374;19.446;2022-11-15T06:48:46;24.95;;;12.73;;
18853;SDS011;9556;49.374;19.446;2022-11-15T06:51:14;24.52;;;12.30;;
18853;SDS011;9556;49.374;19.446;2022-11-15T06:53:41;24.92;;;12.07;;
18853;SDS011;9556;49.374;19.446;2022-11-15T06:56:08;23.80;;;12.38;;
18853;SDS011;9556;49.374;19.446;2022-11-15T06:58:36;22.45;;;12.18;;
18853;SDS011;9556;49.374;19.446;2022-11-15T07:01:04;34.13;;;18.27;;
18853;SDS011;9556;49.374;19.446;2022-11-15T07:03:33;30.65;;;16.17;;
18853;SDS011;9556;49.374;19.446;2022-11-15T07:06:01;27.08;;;15.30;;
18853;SDS011;9556;49.374;19.446;2022-11-15T07:08:28;25.67;;;14.52;;
18853;SDS011;9556;49.374;19.446;2022-11-15T07:10:58;23.50;;;14.60;;
18853;SDS011;9556;49.374;19.446;2022-11-15T07:13:26;29.88;;;13.77;;
18853;SDS011;9556;49.374;19.446;2022-11-15T07:15:55;25.88;;;13.90;;
18853;SDS011;9556;49.374;19.446;2022-11-15T07:18:22;23.05;;;14.02;;
18853;SDS011;9556;49.374;19.446;2022-11-15T07:20:49;29.02;;;15.55;;
18853;SDS011;9556;49.374;19.446;2022-11-15T07:23:16;29.52;;;17.23;;
18853;SDS011;9556;49.374;19.446;2022-11-15T07:25:44;40.70;;;22.98;;
18853;SDS011;9556;49.374;19.446;2022-11-15T07:28:11;38.00;;;21.48;;
18853;SDS011;9556;49.374;19.446;2022-11-15T07:30:38;35.35;;;20.58;;
18853;SDS011;9556;49.374;19.446;2022-11-15T07:33:06;33.22;;;18.42;;
18853;SDS011;9556;49.374;19.446;2022-11-15T07:35:33;34.63;;;18.25;;
18853;SDS011;9556;49.374;19.446;2022-11-15T07:38:01;29.85;;;17.92;;
18853;SDS011;9556;49.374;19.446;2022-11-15T07:40:29;29.85;;;17.63;;
18853;SDS011;9556;49.374;19.446;2022-11-15T07:42:58;28.10;;;17.17;;
18853;SDS011;9556;49.374;19.446;2022-11-15T07:45:26;28.80;;;17.13;;
18853;SDS011;9556;49.374;19.446;2022-11-15T07:47:53;30.08;;;18.02;;
18853;SDS011;9556;49.374;19.446;2022-11-15T07:50:22;31.92;;;17.75;;
18853;SDS011;9556;49.374;19.446;2022-11-15T07:52:52;30.05;;;18.10;;
18853;SDS011;9556;49.374;19.446;2022-11-15T07:55:20;28.10;;;17.02;;
18853;SDS011;9556;49.374;19.446;2022-11-15T07:57:47;31.50;;;17.73;;
18853;SDS011;9556;49.374;19.446;2022-11-15T08:00:15;28.10;;;17.58;;
18853;SDS011;9556;49.374;19.446;2022-11-15T08:02:42;29.13;;;18.08;;
18853;SDS011;9556;49.374;19.446;2022-11-15T08:05:09;32.15;;;18.15;;
18853;SDS011;9556;49.374;19.446;2022-11-15T08:07:37;29.85;;;16.98;;
18853;SDS011;9556;49.374;19.446;2022-11-15T08:10:05;30.52;;;17.35;;
18853;SDS011;9556;49.374;19.446;2022-11-15T08:12:32;30.23;;;17.05;;
18853;SDS011;9556;49.374;19.446;2022-11-15T08:15:00;27.92;;;17.35;;
18853;SDS011;9556;49.374;19.446;2022-11-15T08:17:27;27.95;;;17.42;;
18853;SDS011;9556;49.374;19.446;2022-11-15T08:19:57;28.48;;;17.83;;
18853;SDS011;9556;49.374;19.446;2022-11-15T08:22:24;25.25;;;16.80;;
18853;SDS011;9556;49.374;19.446;2022-11-15T08:24:53;30.15;;;17.95;;
18853;SDS011;9556;49.374;19.446;2022-11-15T08:27:20;29.48;;;18.10;;
18853;SDS011;9556;49.374;19.446;2022-11-15T08:29:48;31.15;;;19.27;;
18853;SDS011;9556;49.374;19.446;2022-11-15T08:32:16;33.25;;;19.98;;
18853;SDS011;9556;49.374;19.446;2022-11-15T08:34:43;32.60;;;19.63;;
18853;SDS011;9556;49.374;19.446;2022-11-15T08:37:10;32.72;;;20.05;;
18853;SDS011;9556;49.374;19.446;2022-11-15T08:39:37;33.75;;;18.77;;
18853;SDS011;9556;49.374;19.446;2022-11-15T08:42:05;32.38;;;18.73;;
18853;SDS011;9556;49.374;19.446;2022-11-15T08:44:33;32.35;;;18.70;;
18853;SDS011;9556;49.374;19.446;2022-11-15T08:47:00;29.45;;;17.92;;
18853;SDS011;9556;49.374;19.446;2022-11-15T08:49:27;31.08;;;18.58;;
18853;SDS011;9556;49.374;19.446;2022-11-15T08:51:54;27.20;;;17.52;;
18853;SDS011;9556;49.374;19.446;2022-11-15T08:54:21;27.88;;;17.90;;
18853;SDS011;9556;49.374;19.446;2022-11-15T08:56:48;29.17;;;17.75;;
18853;SDS011;9556;49.374;19.446;2022-11-15T08:59:17;28.95;;;17.70;;
18853;SDS011;9556;49.374;19.446;2022-11-15T09:01:44;28.33;;;17.52;;
18853;SDS011;9556;49.374;19.446;2022-11-15T09:04:11;28.77;;;18.17;;
18853;SDS011;9556;49.374;19.446;2022-11-15T09:06:38;31.38;;;18.38;;
18853;SDS011;9556;49.374;19.446;2022-11-15T09:09:05;28.75;;;18.25;;
18853;SDS011;9556;49.374;19.446;2022-11-15T09:11:32;29.00;;;18.23;;
18853;SDS011;9556;49.374;19.446;2022-11-15T09:14:00;28.75;;;18.08;;
18853;SDS011;9556;49.374;19.446;2022-11-15T09:16:29;30.33;;;18.80;;
18853;SDS011;9556;49.374;19.446;2022-11-15T09:18:57;30.85;;;18.55;;
18853;SDS011;9556;49.374;19.446;2022-11-15T09:21:24;28.60;;;18.50;;
18853;SDS011;9556;49.374;19.446;2022-11-15T09:23:51;30.42;;;18.10;;
18853;SDS011;9556;49.374;19.446;2022-11-15T09:26:18;28.17;;;17.90;;
18853;SDS011;9556;49.374;19.446;2022-11-15T09:28:45;29.42;;;18.35;;
18853;SDS011;9556;49.374;19.446;2022-11-15T09:31:12;27.35;;;17.63;;
18853;SDS011;9556;49.374;19.446;2022-11-15T09:33:41;30.48;;;17.75;;
18853;SDS011;9556;49.374;19.446;2022-11-15T09:36:09;27.02;;;17.05;;
18853;SDS011;9556;49.374;19.446;2022-11-15T09:38:37;26.33;;;16.65;;
18853;SDS011;9556;49.374;19.446;2022-11-15T09:41:18;28.00;;;16.77;;
18853;SDS011;9556;49.374;19.446;2022-11-15T09:43:50;26.85;;;16.63;;
18853;SDS011;9556;49.374;19.446;2022-11-15T09:46:20;25.48;;;16.27;;
18853;SDS011;9556;49.374;19.446;2022-11-15T09:48:53;27.55;;;17.15;;
18853;SDS011;9556;49.374;19.446;2022-11-15T09:51:26;26.10;;;16.50;;
18853;SDS011;9556;49.374;19.446;2022-11-15T09:54:05;30.40;;;16.73;;
18853;SDS011;9556;49.374;19.446;2022-11-15T09:56:36;28.17;;;17.98;;
18853;SDS011;9556;49.374;19.446;2022-11-15T09:59:07;24.25;;;15.82;;
18853;SDS011;9556;49.374;19.446;2022-11-15T10:01:40;27.00;;;16.80;;
18853;SDS011;9556;49.374;19.446;2022-11-15T10:04:11;24.65;;;16.10;;
18853;SDS011;9556;49.374;19.446;2022-11-15T10:06:39;24.42;;;15.93;;
18853;SDS011;9556;49.374;19.446;2022-11-15T10:09:11;25.55;;;16.10;;
18853;SDS011;9556;49.374;19.446;2022-11-15T10:11:40;26.48;;;16.10;;
18853;SDS011;9556;49.374;19.446;2022-11-15T10:14:09;24.63;;;16.02;;
18853;SDS011;9556;49.374;19.446;2022-11-15T10:16:54;27.38;;;15.60;;
18853;SDS011;9556;49.374;19.446;2022-11-15T10:19:28;22.17;;;14.65;;
18853;SDS011;9556;49.374;19.446;2022-11-15T10:22:00;25.30;;;14.75;;
18853;SDS011;9556;49.374;19.446;2022-11-15T10:24:34;24.10;;;15.43;;
18853;SDS011;9556;49.374;19.446;2022-11-15T10:27:03;23.65;;;15.65;;
18853;SDS011;9556;49.374;19.446;2022-11-15T10:29:33;24.73;;;16.45;;
18853;SDS011;9556;49.374;19.446;2022-11-15T10:32:00;24.27;;;15.50;;
18853;SDS011;9556;49.374;19.446;2022-11-15T10:34:35;25.08;;;16.38;;
18853;SDS011;9556;49.374;19.446;2022-11-15T10:37:02;23.55;;;15.35;;
18853;SDS011;9556;49.374;19.446;2022-11-15T10:39:29;25.15;;;15.32;;
18853;SDS011;9556;49.374;19.446;2022-11-15T10:41:58;24.38;;;15.60;;
18853;SDS011;9556;49.374;19.446;2022-11-15T10:44:42;23.40;;;14.95;;
18853;SDS011;9556;49.374;19.446;2022-11-15T10:47:22;23.48;;;14.98;;
18853;SDS011;9556;49.374;19.446;2022-11-15T10:49:57;23.98;;;15.50;;
18853;SDS011;9556;49.374;19.446;2022-11-15T10:52:24;22.90;;;14.23;;
18853;SDS011;9556;49.374;19.446;2022-11-15T10:54:53;24.23;;;15.43;;
18853;SDS011;9556;49.374;19.446;2022-11-15T10:57:29;25.15;;;15.45;;
18853;SDS011;9556;49.374;19.446;2022-11-15T10:59:58;25.50;;;15.27;;
18853;SDS011;9556;49.374;19.446;2022-11-15T11:02:30;24.55;;;14.93;;
18853;SDS011;9556;49.374;19.446;2022-11-15T11:04:59;24.85;;;14.80;;
18853;SDS011;9556;49.374;19.446;2022-11-15T11:07:27;22.67;;;14.88;;
18853;SDS011;9556;49.374;19.446;2022-11-15T11:09:59;24.55;;;15.50;;
18853;SDS011;9556;49.374;19.446;2022-11-15T11:12:27;24.55;;;15.27;;
18853;SDS011;9556;49.374;19.446;2022-11-15T11:14:55;23.63;;;14.85;;
18853;SDS011;9556;49.374;19.446;2022-11-15T11:17:23;21.65;;;14.60;;
18853;SDS011;9556;49.374;19.446;2022-11-15T11:19:56;25.95;;;15.85;;
18853;SDS011;9556;49.374;19.446;2022-11-15T11:22:30;23.98;;;14.85;;
18853;SDS011;9556;49.374;19.446;2022-11-15T11:25:04;23.75;;;14.93;;
18853;SDS011;9556;49.374;19.446;2022-11-15T11:27:36;25.80;;;16.33;;
18853;SDS011;9556;49.374;19.446;2022-11-15T11:30:06;22.58;;;14.85;;
18853;SDS011;9556;49.374;19.446;2022-11-15T11:32:38;24.63;;;16.08;;
18853;SDS011;9556;49.374;19.446;2022-11-15T11:35:09;24.27;;;15.38;;
18853;SDS011;9556;49.374;19.446;2022-11-15T11:37:42;24.52;;;15.80;;
18853;SDS011;9556;49.374;19.446;2022-11-15T11:40:19;23.73;;;15.10;;
18853;SDS011;9556;49.374;19.446;2022-11-15T11:42:53;24.85;;;15.57;;
18853;SDS011;9556;49.374;19.446;2022-11-15T11:45:27;24.42;;;15.75;;
18853;SDS011;9556;49.374;19.446;2022-11-15T11:47:57;24.17;;;15.63;;
18853;SDS011;9556;49.374;19.446;2022-11-15T11:50:28;28.70;;;18.33;;
18853;SDS011;9556;49.374;19.446;2022-11-15T11:52:58;24.67;;;15.80;;
18853;SDS011;9556;49.374;19.446;2022-11-15T11:55:28;23.70;;;16.25;;
18853;SDS011;9556;49.374;19.446;2022-11-15T11:57:59;27.42;;;16.58;;
18853;SDS011;9556;49.374;19.446;2022-11-15T12:00:28;26.63;;;16.83;;
18853;SDS011;9556;49.374;19.446;2022-11-15T12:03:02;26.42;;;16.58;;
18853;SDS011;9556;49.374;19.446;2022-11-15T12:05:31;29.17;;;18.25;;
18853;SDS011;9556;49.374;19.446;2022-11-15T12:08:01;29.88;;;18.80;;
18853;SDS011;9556;49.374;19.446;2022-11-15T12:10:30;33.97;;;19.48;;
18853;SDS011;9556;49.374;19.446;2022-11-15T12:13:00;33.97;;;19.45;;
18853;SDS011;9556;49.374;19.446;2022-11-15T12:15:30;29.50;;;18.30;;
18853;SDS011;9556;49.374;19.446;2022-11-15T12:17:58;30.30;;;18.27;;
18853;SDS011;9556;49.374;19.446;2022-11-15T12:20:32;31.73;;;18.98;;
18853;SDS011;9556;49.374;19.446;2022-11-15T12:23:04;30.92;;;18.77;;
18853;SDS011;9556;49.374;19.446;2022-11-15T12:25:35;28.58;;;17.30;;
18853;SDS011;9556;49.374;19.446;2022-11-15T12:28:06;29.13;;;18.35;;
18853;SDS011;9556;49.374;19.446;2022-11-15T12:30:41;29.05;;;18.67;;
18853;SDS011;9556;49.374;19.446;2022-11-15T12:35:57;36.33;;;21.63;;
18853;SDS011;9556;49.374;19.446;2022-11-15T12:41:15;41.50;;;21.77;;
18853;SDS011;9556;49.374;19.446;2022-11-15T12:43:43;38.03;;;21.65;;
18853;SDS011;9556;49.374;19.446;2022-11-15T12:46:11;40.33;;;22.88;;
18853;SDS011;9556;49.374;19.446;2022-11-15T12:59:48;43.65;;;25.15;;
18853;SDS011;9556;49.374;19.446;2022-11-15T13:02:17;48.05;;;26.05;;
18853;SDS011;9556;49.374;19.446;2022-11-15T13:04:46;50.30;;;27.15;;
18853;SDS011;9556;49.374;19.446;2022-11-15T13:07:54;51.42;;;27.05;;
18853;SDS011;9556;49.374;19.446;2022-11-15T13:12:56;53.72;;;28.10;;
18853;SDS011;9556;49.374;19.446;2022-11-15T13:21:18;49.70;;;26.60;;
18853;SDS011;9556;49.374;19.446;2022-11-15T13:24:03;52.35;;;26.52;;
18853;SDS011;9556;49.374;19.446;2022-11-15T13:26:30;56.90;;;28.42;;
18853;SDS011;9556;49.374;19.446;2022-11-15T13:28:58;51.83;;;28.20;;
18853;SDS011;9556;49.374;19.446;2022-11-15T13:31:27;47.60;;;26.10;;
18853;SDS011;9556;49.374;19.446;2022-11-15T13:33:56;55.10;;;29.10;;
18853;SDS011;9556;49.374;19.446;2022-11-15T13:36:25;55.65;;;29.58;;
18853;SDS011;9556;49.374;19.446;2022-11-15T13:38:54;62.38;;;30.77;;
18853;SDS011;9556;49.374;19.446;2022-11-15T13:41:22;60.88;;;30.85;;
18853;SDS011;9556;49.374;19.446;2022-11-15T13:43:50;78.43;;;27.75;;
18853;SDS011;9556;49.374;19.446;2022-11-15T13:46:18;72.85;;;28.95;;
18853;SDS011;9556;49.374;19.446;2022-11-15T13:48:45;55.83;;;27.23;;
18853;SDS011;9556;49.374;19.446;2022-11-15T13:51:15;60.35;;;27.27;;
18853;SDS011;9556;49.374;19.446;2022-11-15T13:53:47;70.57;;;26.17;;
18853;SDS011;9556;49.374;19.446;2022-11-15T13:56:16;52.47;;;26.73;;
18853;SDS011;9556;49.374;19.446;2022-11-15T13:58:43;53.22;;;26.30;;
18853;SDS011;9556;49.374;19.446;2022-11-15T14:01:13;50.45;;;26.17;;
18853;SDS011;9556;49.374;19.446;2022-11-15T14:03:46;50.00;;;25.02;;
18853;SDS011;9556;49.374;19.446;2022-11-15T14:06:14;48.60;;;24.50;;
18853;SDS011;9556;49.374;19.446;2022-11-15T14:08:42;49.30;;;24.23;;
18853;SDS011;9556;49.374;19.446;2022-11-15T14:11:25;47.35;;;23.70;;
18853;SDS011;9556;49.374;19.446;2022-11-15T14:14:04;48.65;;;24.00;;
18853;SDS011;9556;49.374;19.446;2022-11-15T14:16:37;43.90;;;23.10;;
18853;SDS011;9556;49.374;19.446;2022-11-15T14:19:05;51.05;;;23.58;;
18853;SDS011;9556;49.374;19.446;2022-11-15T14:21:33;43.70;;;21.95;;
18853;SDS011;9556;49.374;19.446;2022-11-15T14:24:13;43.88;;;21.52;;
18853;SDS011;9556;49.374;19.446;2022-11-15T14:26:42;41.47;;;21.55;;
18853;SDS011;9556;49.374;19.446;2022-11-15T14:29:22;41.20;;;21.70;;
18853;SDS011;9556;49.374;19.446;2022-11-15T14:31:49;44.40;;;21.55;;
18853;SDS011;9556;49.374;19.446;2022-11-15T14:34:16;38.33;;;20.65;;
18853;SDS011;9556;49.374;19.446;2022-11-15T14:36:43;40.17;;;20.70;;
18853;SDS011;9556;49.374;19.446;2022-11-15T14:39:10;37.28;;;20.35;;
18853;SDS011;9556;49.374;19.446;2022-11-15T14:41:38;37.17;;;20.38;;
18853;SDS011;9556;49.374;19.446;2022-11-15T14:44:06;36.22;;;19.90;;
18853;SDS011;9556;49.374;19.446;2022-11-15T14:46:36;39.75;;;19.63;;
18853;SDS011;9556;49.374;19.446;2022-11-15T14:49:03;43.22;;;18.90;;
18853;SDS011;9556;49.374;19.446;2022-11-15T14:51:30;39.72;;;19.65;;
18853;SDS011;9556;49.374;19.446;2022-11-15T14:53:58;33.95;;;18.88;;
18853;SDS011;9556;49.374;19.446;2022-11-15T14:56:26;32.33;;;17.77;;
18853;SDS011;9556;49.374;19.446;2022-11-15T14:58:53;35.58;;;18.58;;
18853;SDS011;9556;49.374;19.446;2022-11-15T15:01:23;32.72;;;17.95;;
18853;SDS011;9556;49.374;19.446;2022-11-15T15:03:51;34.58;;;18.02;;